createdAt,value
2023-03-27T00:02:11.692Z,73.24
2023-03-27T00:07:13.398Z,74.00
2023-03-27T00:12:15.204Z,74.22
2023-03-27T00:17:16.816Z,75.24
2023-03-27T00:22:18.481Z,74.31
2023-03-27T00:27:20.344Z,74.08
2023-03-27T00:32:21.966Z,74.30
2023-03-27T00:37:23.675Z,74.43
2023-03-27T00:42:25.506Z,74.89
2023-03-27T00:47:33.301Z,75.41
2023-03-27T00:52:37.122Z,75.64
2023-03-27T00:57:39.979Z,75.00
2023-03-27T01:02:44.438Z,75.39
2023-03-27T01:08:01.016Z,74.52
2023-03-27T01:13:38.492Z,74.37
2023-03-27T01:18:54.646Z,74.57
2023-03-27T01:24:33.874Z,75.16
2023-03-27T01:29:53.461Z,75.84
2023-03-27T01:35:24.777Z,74.88
2023-03-27T01:40:46.658Z,74.99
2023-03-27T01:45:55.988Z,75.00
2023-03-27T01:51:08.167Z,75.06
2023-03-27T01:56:18.186Z,74.51
2023-03-27T02:01:26.805Z,74.37
2023-03-27T02:06:35.331Z,75.19
2023-03-27T02:11:43.666Z,75.33
2023-03-27T02:16:51.600Z,74.30
2023-03-27T02:21:53.395Z,75.03
2023-03-27T02:27:12.860Z,75.24
2023-03-27T02:32:37.112Z,75.52
2023-03-27T02:38:06.452Z,75.32
2023-03-27T02:43:17.337Z,75.29
2023-03-27T02:48:43.906Z,75.76
2023-03-27T02:53:51.310Z,76.01
2023-03-27T02:59:04.589Z,75.59
2023-03-27T03:04:41.873Z,76.08
2023-03-27T03:09:56.344Z,76.60
2023-03-27T03:14:58.142Z,76.73
2023-03-27T03:19:59.777Z,77.08
2023-03-27T03:25:02.185Z,76.95
2023-03-27T03:30:04.934Z,77.42
2023-03-27T03:35:13.805Z,78.06
2023-03-27T03:40:16.580Z,78.39
2023-03-27T03:45:21.690Z,77.54
2023-03-27T03:50:23.439Z,78.67
2023-03-27T03:55:25.725Z,78.44
2023-03-27T04:00:28.426Z,78.41
2023-03-27T04:05:32.032Z,78.52
2023-03-27T04:10:35.853Z,78.90
2023-03-27T04:15:40.805Z,78.61
2023-03-27T04:20:54.482Z,78.92
2023-03-27T04:26:00.821Z,78.81
2023-03-27T04:31:18.670Z,79.10
2023-03-27T04:36:58.605Z,78.39
2023-03-27T04:42:02.869Z,78.89
2023-03-27T04:47:08.841Z,78.34
2023-03-27T04:52:14.245Z,78.04
2023-03-27T04:57:19.143Z,77.40
2023-03-27T05:02:23.187Z,77.54
2023-03-27T05:07:33.063Z,77.21
2023-03-27T05:12:36.292Z,77.42
2023-03-27T05:17:42.018Z,77.92
2023-03-27T05:22:45.444Z,78.25
2023-03-27T05:28:13.578Z,77.88
2023-03-27T05:33:17.573Z,78.05
2023-03-27T05:38:20.345Z,78.27
2023-03-27T05:43:36.932Z,77.95
2023-03-27T05:48:39.218Z,77.60
2023-03-27T05:53:42.182Z,78.23
2023-03-27T05:58:54.524Z,78.23
2023-03-27T06:03:56.908Z,78.13
2023-03-27T06:09:25.337Z,77.58
2023-03-27T06:14:50.169Z,77.79
2023-03-27T06:20:12.828Z,77.12
2023-03-27T06:25:16.884Z,77.22
2023-03-27T06:30:21.788Z,76.89
2023-03-27T06:35:43.506Z,77.29
2023-03-27T06:40:59.968Z,76.72
2023-03-27T06:46:19.887Z,77.50
2023-03-27T06:51:41.919Z,77.27
2023-03-27T06:56:45.352Z,77.07
2023-03-27T07:01:55.671Z,77.09
2023-03-27T07:07:09.356Z,76.84
2023-03-27T07:12:15.350Z,76.33
2023-03-27T07:17:20.104Z,76.56
2023-03-27T07:22:27.467Z,75.62
2023-03-27T07:27:31.752Z,76.15
2023-03-27T07:32:38.053Z,75.81
2023-03-27T07:37:42.891Z,75.40
2023-03-27T07:43:14.187Z,75.81
2023-03-27T07:48:19.065Z,75.98
2023-03-27T07:53:34.021Z,75.69
2023-03-27T07:58:56.530Z,75.43
2023-03-27T08:03:59.478Z,75.67
2023-03-27T08:09:05.258Z,75.38
2023-03-27T08:14:09.224Z,75.74
2023-03-27T08:19:12.576Z,75.91
2023-03-27T08:24:18.436Z,76.67
2023-03-27T08:29:37.282Z,77.91
2023-03-27T08:34:40.853Z,79.83
2023-03-27T08:39:42.950Z,79.50
2023-03-27T08:44:45.089Z,79.57
2023-03-27T08:49:54.259Z,79.47
2023-03-27T08:55:38.126Z,79.38
2023-03-27T09:01:41.301Z,81.69
2023-03-27T09:06:48.175Z,82.21
2023-03-27T09:12:14.287Z,85.72
2023-03-27T09:17:49.027Z,88.07
2023-03-27T09:22:57.998Z,89.42
2023-03-27T09:28:29.112Z,91.88
2023-03-27T09:33:41.489Z,88.53
2023-03-27T09:38:50.629Z,86.49
2023-03-27T09:44:13.356Z,88.37
2023-03-27T09:49:20.829Z,87.56
2023-03-27T09:54:31.721Z,86.15
2023-03-27T09:59:38.738Z,87.38
2023-03-27T10:05:02.514Z,87.27
2023-03-27T10:10:21.162Z,87.33
2023-03-27T10:15:42.447Z,88.09
2023-03-27T10:20:57.123Z,88.43
2023-03-27T10:26:04.161Z,88.07
2023-03-27T10:31:36.541Z,88.81
2023-03-27T10:36:54.537Z,87.07
2023-03-27T10:42:09.030Z,88.71
2023-03-27T10:47:22.722Z,88.33
2023-03-27T10:52:40.586Z,87.13
2023-03-27T10:57:54.007Z,88.02
2023-03-27T11:03:21.093Z,87.22
2023-03-27T11:08:46.450Z,87.37
2023-03-27T11:13:52.138Z,86.00
2023-03-27T11:19:13.289Z,85.22
2023-03-27T11:24:55.234Z,85.13
2023-03-27T11:30:14.349Z,84.60
2023-03-27T11:35:39.273Z,84.04
2023-03-27T11:41:01.931Z,83.14
2023-03-27T11:46:21.094Z,82.98
2023-03-27T11:51:22.892Z,82.86
2023-03-27T11:56:31.865Z,80.86
2023-03-27T12:02:27.812Z,81.67
2023-03-27T12:07:38.046Z,80.64
2023-03-27T12:13:12.023Z,80.09
2023-03-27T12:18:27.478Z,82.14
2023-03-27T12:23:50.814Z,84.42
2023-03-27T12:29:23.056Z,83.20
2023-03-27T12:34:50.115Z,84.16
2023-03-27T12:39:59.014Z,84.13
2023-03-27T12:45:18.025Z,79.13
2023-03-27T12:50:26.314Z,78.01
2023-03-27T12:55:32.758Z,76.07
2023-03-27T13:00:34.416Z,71.11
2023-03-27T13:05:45.720Z,70.71
2023-03-27T13:11:18.651Z,72.04
2023-03-27T13:17:02.302Z,69.82
2023-03-27T13:22:20.430Z,68.98
2023-03-27T13:27:47.705Z,66.29
2023-03-27T13:33:14.398Z,63.29
2023-03-27T13:38:36.999Z,59.40
2023-03-27T13:43:39.067Z,60.67
2023-03-27T13:49:06.167Z,59.87
2023-03-27T13:54:34.504Z,58.78
2023-03-27T14:00:10.578Z,59.11
2023-03-27T14:05:49.395Z,58.56
2023-03-27T14:11:09.768Z,59.75
2023-03-27T14:16:50.780Z,59.74
2023-03-27T14:22:00.241Z,59.42
2023-03-27T14:27:10.739Z,57.02
2023-03-27T14:32:17.381Z,56.64
2023-03-27T14:37:31.890Z,56.34
2023-03-27T14:42:38.111Z,56.30
2023-03-27T14:47:43.208Z,54.05
2023-03-27T14:52:52.952Z,53.65
2023-03-27T14:58:00.144Z,51.80
2023-03-27T15:03:13.755Z,52.87
2023-03-27T15:08:19.618Z,54.06
2023-03-27T15:13:45.764Z,52.71
2023-03-27T15:19:17.250Z,51.57
2023-03-27T15:24:30.473Z,53.04
2023-03-27T15:29:40.733Z,54.32
2023-03-27T15:34:46.924Z,54.94
2023-03-27T15:39:59.355Z,54.28
2023-03-27T15:45:03.673Z,54.57
2023-03-27T15:50:17.440Z,55.40
2023-03-27T15:55:39.467Z,55.02
2023-03-27T16:00:49.861Z,55.82
2023-03-27T16:05:57.049Z,56.06
2023-03-27T16:11:00.602Z,56.25
2023-03-27T16:16:05.803Z,57.39
2023-03-27T16:21:13.432Z,57.05
2023-03-27T16:26:27.891Z,58.32
2023-03-27T16:31:29.743Z,59.81
2023-03-27T16:36:32.948Z,59.59
2023-03-27T16:41:34.624Z,60.40
2023-03-27T16:46:36.607Z,62.67
2023-03-27T16:51:38.292Z,63.82
2023-03-27T16:56:40.008Z,64.19
2023-03-27T17:01:42.134Z,64.18
2023-03-27T17:06:44.071Z,64.84
2023-03-27T17:11:45.843Z,64.49
2023-03-27T17:16:48.907Z,65.23
2023-03-27T17:21:50.619Z,64.75
2023-03-27T17:26:52.480Z,63.97
2023-03-27T17:32:00.672Z,64.22
2023-03-27T17:37:02.328Z,64.72
2023-03-27T17:42:04.194Z,65.41
2023-03-27T17:47:07.563Z,66.42
2023-03-27T17:52:11.814Z,66.13
2023-03-27T17:57:13.508Z,66.58
2023-03-27T18:02:20.848Z,67.30
2023-03-27T18:07:29.505Z,68.14
2023-03-27T18:12:34.106Z,68.70
2023-03-27T18:24:47.001Z,68.84
2023-03-27T18:29:48.583Z,68.53
2023-03-27T18:34:51.078Z,67.50
2023-03-27T18:39:52.709Z,66.99
2023-03-27T18:44:54.534Z,66.83
2023-03-27T18:49:57.509Z,67.56
2023-03-27T18:54:59.158Z,68.16
2023-03-27T19:00:01.466Z,69.89
2023-03-27T19:05:04.302Z,71.43
2023-03-27T19:10:06.546Z,72.69
2023-03-27T19:20:41.140Z,72.79
2023-03-27T19:26:19.700Z,72.51
2023-03-27T19:31:21.927Z,72.97
2023-03-27T19:36:27.198Z,73.21
2023-03-27T19:41:28.897Z,72.51
2023-03-27T19:46:30.785Z,72.42
2023-03-27T19:51:32.517Z,72.37
2023-03-27T19:56:35.003Z,72.75
2023-03-27T20:01:37.583Z,73.28
2023-03-27T20:06:39.899Z,73.32
2023-03-27T20:11:44.125Z,73.96
2023-03-27T20:16:46.676Z,74.33
2023-03-27T20:21:48.280Z,74.17
2023-03-27T20:26:54.026Z,74.44
2023-03-27T20:31:58.832Z,74.31
2023-03-27T20:37:05.768Z,74.40
2023-03-27T20:42:28.754Z,74.58
2023-03-27T20:47:39.132Z,74.84
2023-03-27T20:52:41.717Z,74.58
2023-03-27T20:57:43.359Z,74.16
2023-03-27T21:02:45.164Z,73.83
2023-03-27T21:07:52.627Z,73.57
2023-03-27T21:12:56.581Z,74.04
2023-03-27T21:17:58.664Z,73.63
2023-03-27T21:23:01.936Z,73.29
2023-03-27T21:28:04.920Z,73.40
2023-03-27T21:33:07.281Z,73.22
2023-03-27T21:38:09.021Z,73.80
2023-03-27T21:43:13.194Z,73.48
2023-03-27T21:48:15.356Z,74.19
2023-03-27T21:53:17.154Z,74.19
2023-03-27T21:58:18.776Z,74.46
2023-03-27T22:03:20.582Z,74.46
2023-03-27T22:08:22.304Z,74.58
2023-03-27T22:13:24.070Z,74.92
2023-03-27T22:18:25.899Z,75.04
2023-03-27T22:23:27.765Z,75.41
2023-03-27T22:28:29.624Z,75.12
2023-03-27T22:33:32.029Z,75.24
2023-03-27T22:38:33.757Z,74.96
2023-03-27T22:43:35.878Z,74.97
2023-03-27T22:48:37.525Z,74.97
2023-03-27T22:53:40.515Z,75.23
2023-03-27T22:58:42.162Z,75.13
2023-03-27T23:03:44.011Z,75.17
2023-03-27T23:08:47.295Z,75.16
2023-03-27T23:13:49.634Z,75.56
2023-03-27T23:18:51.268Z,75.21
2023-03-27T23:23:53.104Z,75.13
2023-03-27T23:29:02.344Z,75.12
2023-03-27T23:34:04.119Z,74.92
2023-03-27T23:39:05.742Z,75.21
2023-03-27T23:44:07.304Z,74.92
2023-03-27T23:49:08.878Z,75.54
2023-03-27T23:54:10.602Z,75.11
2023-03-27T23:59:12.318Z,75.11
